Northpine Estates, Indiana
Current Conditions -  °F | °C
As of 10:53 AM on Wednesday 26 Nov 2014 (Local Time) from KHUF Reporting Station
Overcast Overcast  
Wind Chill: 20°   Ceiling: 1200
Heat Index: 27°   Visibility: 10mi
Dew Point: 22°   Wind: 6mph
Humidity: 81%   Direction: 170°S
Pressure: 30.15"   Gusts: NA
Location:  39.6386°N, 87.3045°W
Report Text: KHUF 261553Z 17005KT 10SM OVC012 M03/M06 A3015 RMK AO2 SLP217 T10281056
Loading
Personal Weather Stations






























Interactive Weather Map New forecast layout! Learn more

10-Day Weather Forecast

Advertisements
Track Severe Weather on mobile